Lisbon, Louisiana
Current Conditions -  °F | °C
As of 6:55 PM on Friday 19 Dec 2014 (Local Time) from KRSN Reporting Station
Overcast Overcast  
Wind Chill: 42°   Ceiling: 400
Heat Index: 46°   Visibility: 7mi
Dew Point: 46°   Wind: 7mph
Humidity: 100%   Direction: 50°NE
Pressure: 30.2"   Gusts: NA
Location:  32.8°N, 92.87°W
Report Text: KRSN 200055Z AUTO 05006KT 7SM OVC004 08/08 A3020 RMK AO2 T00750075
Loading
Personal Weather Stations






























Interactive Weather Map New forecast layout! Learn more

10-Day Weather Forecast

Advertisements
Track Severe Weather on mobile